Time;durP1;ratioP1;P1;durP2;ratioP2;P2;SDS_P1;SDS_P2;PMS_P1;PMS_P2;Temp;Humidity;BMP_temperature;BMP_pressure;BME280_temperature;BME280_humidity;BME280_pressure;Samples;Min_cycle;Max_cycle;Signal;HPM_P1;HPM_P2
2022/02/04 00:08:27;;;;;;;29.23;21.70;;;6.10;99.90;;;;;;5090019;28;20417;-63
2022/02/04 00:22:26;;;;;;;27.90;21.10;;;6.00;99.90;;;;;;5090863;28;20875;-63
2022/02/04 00:24:56;;;;;;;28.67;20.80;;;6.10;99.90;;;;;;5090361;28;20893;-63
2022/02/04 00:27:28;;;;;;;29.67;21.50;;;6.10;99.90;;;;;;5091354;28;20439;-64
2022/02/04 00:30:04;;;;;;;27.40;20.70;;;6.10;99.90;;;;;;5092903;28;20480;-63
2022/02/04 00:32:33;;;;;;;27.43;20.77;;;6.10;99.90;;;;;;5092729;28;20539;-64
2022/02/04 00:35:10;;;;;;;25.27;21.00;;;6.10;99.90;;;;;;5092599;28;20922;-64
2022/02/04 00:37:52;;;;;;;27.93;22.07;;;6.20;99.90;;;;;;5092353;28;20505;-64
2022/02/04 00:40:23;;;;;;;29.63;20.43;;;6.20;99.90;;;;;;5085342;28;20463;-64
2022/02/04 00:42:55;;;;;;;27.20;21.10;;;6.10;99.90;;;;;;5092205;28;20461;-64
2022/02/04 00:45:28;;;;;;;27.33;20.17;;;6.10;99.90;;;;;;5089142;28;20484;-64
2022/02/04 00:48:06;;;;;;;29.27;21.63;;;6.10;99.90;;;;;;5092243;28;20480;-64
2022/02/04 00:50:47;;;;;;;28.37;20.80;;;6.10;99.90;;;;;;5092503;28;20471;-64
2022/02/04 00:53:21;;;;;;;25.90;21.27;;;6.10;99.90;;;;;;5091235;28;20439;-64
2022/02/04 00:56:04;;;;;;;23.97;18.73;;;6.20;99.90;;;;;;5104188;28;20457;-64
2022/02/04 01:26:04;;;;;;;26.83;20.30;;;6.20;99.90;;;;;;5076174;28;20440;-64
2022/02/04 01:28:34;;;;;;;23.20;18.90;;;6.30;99.90;;;;;;5072368;28;20466;-64
2022/02/04 01:31:01;;;;;;;34.47;21.97;;;6.20;99.90;;;;;;5069511;28;20499;-64
2022/02/04 01:33:29;;;;;;;25.97;20.10;;;6.20;99.90;;;;;;5067032;28;20760;-64
2022/02/04 01:35:59;;;;;;;24.90;19.63;;;6.20;99.90;;;;;;5065921;28;20453;-63
2022/02/04 01:38:28;;;;;;;27.07;20.73;;;6.20;99.90;;;;;;5072143;28;20436;-63
2022/02/04 01:40:58;;;;;;;25.47;20.40;;;6.20;99.90;;;;;;5070384;28;20481;-63
2022/02/04 01:43:26;;;;;;;25.47;20.47;;;6.20;99.90;;;;;;5063732;28;20466;-63
2022/02/04 01:46:02;;;;;;;26.50;21.60;;;6.20;99.90;;;;;;5078414;28;20438;-63
2022/02/04 01:48:30;;;;;;;28.93;22.70;;;6.20;99.90;;;;;;5077260;28;20505;-63
2022/02/04 01:50:57;;;;;;;27.73;21.60;;;6.20;99.90;;;;;;5077790;28;20497;-63
2022/02/04 01:53:28;;;;;;;28.70;21.50;;;6.20;99.90;;;;;;5077248;28;20461;-64
2022/02/04 01:55:56;;;;;;;28.50;21.87;;;6.20;99.90;;;;;;5076536;28;20469;-63
2022/02/04 01:58:23;;;;;;;26.73;21.87;;;6.20;99.90;;;;;;5076479;28;20515;-63
2022/02/04 02:00:52;;;;;;;26.20;21.70;;;6.20;99.90;;;;;;5078093;28;20507;-63
2022/02/04 02:03:22;;;;;;;25.30;19.83;;;6.20;99.90;;;;;;5077980;28;20480;-63
2022/02/04 02:05:51;;;;;;;27.30;21.47;;;6.20;99.90;;;;;;5077945;28;20458;-63
2022/02/04 02:08:20;;;;;;;27.20;20.50;;;6.20;99.90;;;;;;5075542;28;20552;-63
2022/02/04 02:10:49;;;;;;;26.53;19.97;;;6.20;99.90;;;;;;5077334;28;20489;-63
2022/02/04 02:13:24;;;;;;;25.00;19.33;;;6.20;99.90;;;;;;5074629;28;20875;-63
2022/02/04 02:16:01;;;;;;;27.10;18.90;;;6.20;99.90;;;;;;5078741;28;21049;-64
2022/02/04 02:35:48;;;;;;;18.63;15.37;;;6.20;99.90;;;;;;5074984;28;20436;-63
2022/02/04 02:46:51;;;;;;;16.00;13.90;;;6.20;99.90;;;;;;5075960;28;20486;-63
2022/02/04 02:49:45;;;;;;;15.57;13.20;;;6.20;99.90;;;;;;5076159;28;20484;-64
2022/02/04 02:52:20;;;;;;;18.27;15.00;;;6.20;99.90;;;;;;5074459;28;20467;-63
2022/02/04 02:57:56;;;;;;;18.37;14.57;;;6.20;99.90;;;;;;5075019;28;20426;-63
2022/02/04 03:00:31;;;;;;;16.37;13.83;;;6.20;99.90;;;;;;5082139;28;20445;-64
2022/02/04 03:03:04;;;;;;;17.20;12.87;;;6.20;99.90;;;;;;5084579;28;20932;-64
2022/02/04 03:05:31;;;;;;;17.37;13.73;;;6.20;99.90;;;;;;5075448;28;20469;-63
2022/02/04 03:07:58;;;;;;;17.90;15.27;;;6.20;99.90;;;;;;5078300;28;20815;-64
2022/02/04 03:10:26;;;;;;;15.83;14.13;;;6.20;99.90;;;;;;5072175;28;20488;-64
2022/02/04 03:12:53;;;;;;;20.43;14.83;;;6.30;99.90;;;;;;5070734;28;20461;-63
2022/02/04 03:15:21;;;;;;;19.83;15.20;;;6.20;99.90;;;;;;5056505;28;20467;-64
2022/02/04 03:17:57;;;;;;;19.53;16.17;;;6.20;99.90;;;;;;5068801;28;20461;-64
2022/02/04 03:20:24;;;;;;;18.93;16.37;;;6.20;99.90;;;;;;5077901;28;20547;-64
2022/02/04 03:22:52;;;;;;;21.23;15.37;;;6.20;99.90;;;;;;5093450;28;20486;-64
2022/02/04 03:25:22;;;;;;;18.33;15.37;;;6.20;99.90;;;;;;5077239;28;20462;-64
2022/02/04 03:27:54;;;;;;;19.53;14.67;;;6.20;99.90;;;;;;5076313;28;21035;-64
2022/02/04 03:30:26;;;;;;;18.97;15.80;;;6.10;99.90;;;;;;5075260;28;20971;-64
2022/02/04 03:32:56;;;;;;;19.27;14.80;;;6.20;99.90;;;;;;5075606;28;20518;-64
2022/02/04 03:35:25;;;;;;;18.33;14.90;;;6.10;99.90;;;;;;5074641;28;20468;-64
2022/02/04 03:37:55;;;;;;;19.60;14.63;;;6.10;99.90;;;;;;5075933;28;20464;-64
2022/02/04 03:40:26;;;;;;;16.87;14.37;;;6.10;99.90;;;;;;5076602;28;20458;-64
2022/02/04 03:42:55;;;;;;;17.43;14.83;;;6.10;99.90;;;;;;5076720;28;20518;-64
2022/02/04 03:45:25;;;;;;;16.77;13.00;;;6.10;99.90;;;;;;5076107;28;20511;-64
2022/02/04 03:47:52;;;;;;;17.03;13.53;;;6.00;99.90;;;;;;5077021;28;20778;-64
2022/02/04 03:50:19;;;;;;;16.63;14.33;;;6.10;99.90;;;;;;5076642;28;20501;-64
2022/02/04 03:52:47;;;;;;;15.53;13.53;;;6.10;99.90;;;;;;5076943;28;20519;-64
2022/02/04 03:55:14;;;;;;;17.10;13.63;;;6.10;99.90;;;;;;5076539;28;20465;-64
2022/02/04 03:57:41;;;;;;;17.10;13.23;;;6.10;99.90;;;;;;5076800;28;20515;-64
2022/02/04 04:00:13;;;;;;;15.70;13.03;;;6.00;99.90;;;;;;5076723;28;20522;-64
2022/02/04 04:02:40;;;;;;;16.50;13.13;;;6.00;99.90;;;;;;5076929;28;20564;-64
2022/02/04 04:05:08;;;;;;;16.77;13.67;;;6.10;99.90;;;;;;5076052;28;20437;-64
2022/02/04 04:07:41;;;;;;;15.07;12.87;;;6.00;99.90;;;;;;5076653;28;20472;-64
2022/02/04 04:10:16;;;;;;;17.80;13.67;;;6.00;99.90;;;;;;5076022;28;20491;-64
2022/02/04 04:12:43;;;;;;;18.50;13.80;;;6.00;99.90;;;;;;5076789;28;20436;-64
2022/02/04 04:15:12;;;;;;;16.87;13.10;;;6.00;99.90;;;;;;5076415;28;20465;-64
2022/02/04 04:17:41;;;;;;;17.37;12.20;;;6.00;99.90;;;;;;5076949;28;20487;-64
2022/02/04 04:20:10;;;;;;;13.60;12.07;;;6.00;99.90;;;;;;5076379;28;20481;-64
2022/02/04 04:22:37;;;;;;;15.80;12.80;;;6.00;99.90;;;;;;5076542;28;20468;-64
2022/02/04 04:25:05;;;;;;;16.63;14.30;;;6.00;99.90;;;;;;5076630;28;20465;-64
2022/02/04 04:27:33;;;;;;;15.33;13.23;;;6.00;99.90;;;;;;5076921;28;20790;-64
2022/02/04 04:30:01;;;;;;;16.20;12.83;;;6.00;99.90;;;;;;5076676;28;20461;-64
2022/02/04 04:32:32;;;;;;;20.43;13.20;;;6.00;99.90;;;;;;5076344;28;20460;-64
2022/02/04 04:35:02;;;;;;;17.07;12.83;;;6.00;99.90;;;;;;5076541;28;20457;-64
2022/02/04 04:37:29;;;;;;;14.73;11.97;;;6.00;99.90;;;;;;5079684;28;20442;-64
2022/02/04 04:40:13;;;;;;;16.20;12.67;;;6.00;99.90;;;;;;5080486;28;20464;-64
2022/02/04 04:42:53;;;;;;;16.17;13.40;;;6.00;99.90;;;;;;5080113;28;20463;-64
2022/02/04 05:26:50;;;;;;;14.07;10.13;;;6.10;99.90;;;;;;5080107;28;20434;-64
2022/02/04 05:29:17;;;;;;;10.63;9.23;;;6.10;99.90;;;;;;5078374;28;20446;-64
2022/02/04 05:31:44;;;;;;;12.50;10.00;;;6.10;99.90;;;;;;5082226;28;20536;-64
2022/02/04 05:34:14;;;;;;;12.00;9.57;;;6.10;99.90;;;;;;5084487;28;20465;-64
2022/02/04 05:36:45;;;;;;;11.87;9.67;;;6.20;99.90;;;;;;5084981;28;20463;-64
2022/02/04 05:39:14;;;;;;;12.67;10.03;;;6.10;99.90;;;;;;5082122;28;20480;-64
2022/02/04 05:41:46;;;;;;;15.27;10.00;;;6.20;99.90;;;;;;5084559;28;20436;-64
2022/02/04 05:44:15;;;;;;;13.60;9.70;;;6.20;99.90;;;;;;5086389;28;20548;-64
2022/02/04 05:46:50;;;;;;;11.43;9.00;;;6.20;99.90;;;;;;5078658;28;20552;-64
2022/02/04 05:49:19;;;;;;;10.93;8.90;;;6.20;99.90;;;;;;5077899;28;20463;-64
2022/02/04 05:51:57;;;;;;;15.10;10.83;;;6.30;99.90;;;;;;5079483;28;20464;-64
2022/02/04 05:54:37;;;;;;;13.57;10.27;;;6.20;99.90;;;;;;5094910;28;20464;-64
2022/02/04 05:57:10;;;;;;;10.70;9.60;;;6.20;99.90;;;;;;5099194;28;20555;-64
2022/02/04 05:59:59;;;;;;;11.97;8.87;;;6.30;99.90;;;;;;5095906;28;20507;-64
2022/02/04 06:02:32;;;;;;;14.67;10.53;;;6.30;99.90;;;;;;5078093;28;20430;-64
2022/02/04 06:05:07;;;;;;;12.13;10.77;;;6.30;99.90;;;;;;5076919;28;20466;-64
2022/02/04 06:07:52;;;;;;;11.63;10.03;;;6.20;99.90;;;;;;5077978;28;20514;-64
2022/02/04 06:10:39;;;;;;;12.37;9.17;;;6.20;99.90;;;;;;5076750;28;20465;-64
2022/02/04 06:13:33;;;;;;;11.70;9.20;;;6.30;99.90;;;;;;5075599;28;20457;-64
2022/02/04 06:24:20;;;;;;;14.53;11.23;;;6.30;99.90;;;;;;5077139;28;20433;-64
2022/02/04 06:26:51;;;;;;;13.23;10.70;;;6.30;99.90;;;;;;5077794;28;20522;-64
2022/02/04 06:29:18;;;;;;;13.57;11.20;;;6.30;99.90;;;;;;5077099;28;20779;-64
2022/02/04 06:31:45;;;;;;;10.23;8.03;;;6.40;99.90;;;;;;5076472;28;20477;-66
2022/02/04 06:34:12;;;;;;;10.60;8.27;;;6.40;99.90;;;;;;5076382;28;20440;-64
2022/02/04 06:36:39;;;;;;;10.50;8.37;;;6.40;99.90;;;;;;5076497;28;20929;-64
2022/02/04 06:39:06;;;;;;;12.30;9.83;;;6.30;99.90;;;;;;5075873;28;20472;-64
2022/02/04 06:41:35;;;;;;;11.80;8.93;;;6.30;99.90;;;;;;5077084;28;20509;-61
2022/02/04 06:44:02;;;;;;;13.83;10.13;;;6.30;99.90;;;;;;5076448;28;20469;-61
2022/02/04 06:46:29;;;;;;;12.40;9.20;;;6.30;99.90;;;;;;5077546;28;20538;-61
2022/02/04 06:48:56;;;;;;;12.77;9.93;;;6.30;99.90;;;;;;5075956;28;20906;-61
2022/02/04 06:51:23;;;;;;;11.40;9.33;;;6.40;99.90;;;;;;5076269;28;20864;-62
2022/02/04 06:53:53;;;;;;;9.10;7.80;;;6.30;99.90;;;;;;5075943;28;20468;-60
2022/02/04 06:56:21;;;;;;;8.80;6.93;;;6.30;99.90;;;;;;5076012;28;20455;-60
2022/02/04 06:58:49;;;;;;;10.87;7.77;;;6.30;99.90;;;;;;5075086;28;20904;-59
2022/02/04 07:01:17;;;;;;;11.60;8.30;;;6.40;99.90;;;;;;5056383;28;20528;-61
2022/02/04 07:03:44;;;;;;;9.23;7.70;;;6.40;99.90;;;;;;5061523;28;20513;-62
2022/02/04 07:06:15;;;;;;;12.67;8.80;;;6.30;99.90;;;;;;5076595;28;20466;-62
2022/02/04 07:08:57;;;;;;;9.20;7.73;;;6.40;99.90;;;;;;5076658;28;20472;-61
2022/02/04 07:11:48;;;;;;;13.37;10.57;;;6.40;99.90;;;;;;5076846;28;20463;-60
2022/02/04 07:14:32;;;;;;;13.00;9.17;;;6.40;99.90;;;;;;5076711;28;20436;-62
2022/02/04 07:17:19;;;;;;;12.17;8.40;;;6.40;99.90;;;;;;5077496;28;20912;-62
2022/02/04 07:19:46;;;;;;;8.17;7.13;;;6.40;99.90;;;;;;5077201;28;20443;-62
2022/02/04 07:22:13;;;;;;;9.53;7.40;;;6.40;99.90;;;;;;5077173;28;20461;-61
2022/02/04 07:24:42;;;;;;;9.13;7.63;;;6.40;99.90;;;;;;5076976;28;20461;-62
2022/02/04 07:27:09;;;;;;;10.13;8.03;;;6.40;99.90;;;;;;5077399;28;20879;-62
2022/02/04 07:29:46;;;;;;;10.57;7.47;;;6.40;99.90;;;;;;5076908;28;20467;-61
2022/02/04 07:32:18;;;;;;;12.27;7.67;;;6.50;99.90;;;;;;5076850;28;20496;-62
2022/02/04 07:35:02;;;;;;;11.33;7.77;;;6.50;99.90;;;;;;5076621;28;20465;-62
2022/02/04 07:43:02;;;;;;;9.67;8.17;;;6.50;99.90;;;;;;5056830;28;20428;-62
2022/02/04 07:45:33;;;;;;;12.83;10.00;;;6.50;99.90;;;;;;5057451;28;20519;-61
2022/02/04 07:48:00;;;;;;;11.27;9.40;;;6.50;99.90;;;;;;5057237;28;20443;-62
2022/02/04 07:50:27;;;;;;;8.33;7.47;;;6.60;99.90;;;;;;5056611;28;20486;-62
2022/02/04 07:52:56;;;;;;;9.73;8.50;;;6.60;99.90;;;;;;5056825;28;20818;-62
2022/02/04 07:55:25;;;;;;;9.13;7.10;;;6.60;99.90;;;;;;5057070;28;20853;-62
2022/02/04 07:57:53;;;;;;;10.53;8.13;;;6.60;99.90;;;;;;5057392;28;20441;-62
2022/02/04 08:00:21;;;;;;;9.37;7.20;;;6.60;99.90;;;;;;5056683;28;20907;-62
2022/02/04 08:02:50;;;;;;;7.63;6.47;;;6.60;99.90;;;;;;5056704;28;20465;-61
2022/02/04 08:05:20;;;;;;;9.40;7.57;;;6.60;99.90;;;;;;5057304;28;20944;-62
2022/02/04 08:07:53;;;;;;;7.57;6.77;;;6.60;99.90;;;;;;5056956;28;20466;-62
2022/02/04 08:10:30;;;;;;;8.63;5.77;;;6.60;99.90;;;;;;5056580;28;20568;-63
2022/02/04 08:13:24;;;;;;;9.00;6.70;;;6.50;99.90;;;;;;5061123;28;20494;-63
2022/02/04 08:16:20;;;;;;;9.57;8.57;;;6.50;99.90;;;;;;5076003;28;20457;-63
2022/02/04 08:21:58;;;;;;;9.43;8.53;;;6.60;99.90;;;;;;5079576;28;20453;-62
2022/02/04 08:24:42;;;;;;;12.23;8.80;;;6.70;99.90;;;;;;5080917;28;20461;-63
2022/02/04 08:30:39;;;;;;;11.90;9.93;;;6.70;99.90;;;;;;5069660;28;20705;-62
2022/02/04 08:39:04;;;;;;;9.00;7.33;;;6.80;99.90;;;;;;5064685;28;20547;-62
2022/02/04 08:47:26;;;;;;;8.57;7.47;;;6.90;99.90;;;;;;5080019;28;20731;-62
2022/02/04 08:53:03;;;;;;;7.90;7.10;;;7.00;99.90;;;;;;5094413;28;20591;-63
2022/02/04 08:55:40;;;;;;;7.17;6.10;;;7.00;99.90;;;;;;5094701;28;20894;-63
2022/02/04 08:58:21;;;;;;;8.50;7.10;;;7.10;99.90;;;;;;5094851;28;20945;-63
2022/02/04 09:00:59;;;;;;;11.43;7.63;;;7.10;99.90;;;;;;5094660;28;20456;-62
2022/02/04 09:03:29;;;;;;;7.67;6.07;;;7.20;99.90;;;;;;5094518;28;20542;-63
2022/02/04 09:06:10;;;;;;;9.10;6.40;;;7.10;99.90;;;;;;5094425;28;20461;-63
2022/02/04 09:08:48;;;;;;;8.00;6.33;;;7.20;99.90;;;;;;5094808;28;20461;-63
2022/02/04 09:11:38;;;;;;;7.70;6.30;;;7.20;99.90;;;;;;5094079;28;20927;-63
2022/02/04 09:17:03;;;;;;;8.53;7.00;;;7.20;99.90;;;;;;5094164;28;20439;-63
2022/02/04 09:20:00;;;;;;;9.00;5.40;;;7.30;99.90;;;;;;5074495;28;20812;-63
2022/02/04 09:22:40;;;;;;;7.47;6.57;;;7.20;99.90;;;;;;5074096;28;20433;-62
2022/02/04 09:25:12;;;;;;;8.77;6.80;;;7.20;99.90;;;;;;5091315;28;20534;-63
2022/02/04 09:27:39;;;;;;;7.87;7.07;;;7.20;99.90;;;;;;5093650;28;20519;-63
2022/02/04 09:30:10;;;;;;;8.07;6.00;;;7.20;99.90;;;;;;5093919;28;20439;-61
2022/02/04 09:32:38;;;;;;;10.40;6.83;;;7.20;99.90;;;;;;5093214;28;20466;-63
2022/02/04 09:35:13;;;;;;;6.43;5.33;;;7.20;99.90;;;;;;5093280;28;20518;-63
2022/02/04 09:37:42;;;;;;;7.37;6.30;;;7.20;99.90;;;;;;5094161;28;20459;-63
2022/02/04 09:40:12;;;;;;;6.90;6.20;;;7.20;99.90;;;;;;5093088;28;20468;-63
2022/02/04 09:42:40;;;;;;;6.17;5.50;;;7.20;99.90;;;;;;5093773;28;20541;-63
2022/02/04 09:45:07;;;;;;;6.23;4.20;;;7.20;99.90;;;;;;5092945;28;20436;-63
2022/02/04 09:47:37;;;;;;;6.43;5.27;;;7.20;99.90;;;;;;5093804;28;20755;-62
2022/02/04 09:50:10;;;;;;;6.57;4.63;;;7.10;99.90;;;;;;5093011;28;20924;-63
2022/02/04 10:13:09;;;;;;;5.50;4.67;;;7.00;99.90;;;;;;5042640;28;20613;-59
2022/02/04 10:15:44;;;;;;;6.23;5.43;;;7.00;99.90;;;;;;5078223;28;20487;-62
2022/02/04 10:18:18;;;;;;;6.90;4.70;;;6.90;99.90;;;;;;5079857;28;20542;-62
2022/02/04 10:20:45;;;;;;;4.83;4.17;;;7.00;99.90;;;;;;5078112;28;20918;-60
2022/02/04 10:23:15;;;;;;;4.87;4.17;;;7.00;99.90;;;;;;5078411;28;20440;-59
2022/02/04 10:25:43;;;;;;;5.20;4.63;;;7.00;99.90;;;;;;5076285;28;20440;-60
2022/02/04 10:28:24;;;;;;;6.30;4.90;;;7.00;99.90;;;;;;5078409;28;20465;-62
2022/02/04 10:31:04;;;;;;;6.10;4.60;;;6.90;99.90;;;;;;5079134;28;20465;-61
2022/02/04 10:33:33;;;;;;;6.07;4.60;;;6.90;99.90;;;;;;5077599;28;20487;-61
2022/02/04 10:36:05;;;;;;;6.27;4.87;;;6.90;99.90;;;;;;5078085;28;20461;-59
2022/02/04 10:38:42;;;;;;;4.93;4.30;;;6.80;99.90;;;;;;5078573;28;20492;-60
2022/02/04 10:41:16;;;;;;;4.93;4.37;;;6.80;99.90;;;;;;5079191;28;20823;-61
2022/02/04 10:43:55;;;;;;;5.80;4.83;;;6.80;99.90;;;;;;5079569;28;20924;-61
2022/02/04 10:46:33;;;;;;;5.60;4.40;;;6.80;99.90;;;;;;5079123;28;20515;-61
2022/02/04 10:49:25;;;;;;;6.53;5.47;;;6.80;99.90;;;;;;5078382;28;20781;-58
2022/02/04 10:52:18;;;;;;;5.80;5.23;;;6.90;99.90;;;;;;5077991;28;20862;-62
2022/02/04 10:57:53;;;;;;;6.03;5.43;;;6.90;99.90;;;;;;5078333;28;20452;-61
2022/02/04 11:00:26;;;;;;;5.67;5.00;;;6.90;99.90;;;;;;5078882;28;20560;-62
2022/02/04 11:03:07;;;;;;;5.57;5.00;;;7.00;99.90;;;;;;5077726;28;20929;-62
2022/02/04 11:05:51;;;;;;;6.53;5.40;;;7.10;99.90;;;;;;5078933;28;20446;-59
2022/02/04 11:49:39;;;;;;;3.03;2.73;;;7.30;99.90;;;;;;5076882;28;20491;-63
2022/02/04 11:54:53;;;;;;;5.60;2.90;;;7.40;99.90;;;;;;5064927;28;20862;-64
2022/02/04 11:57:23;;;;;;;4.33;3.13;;;7.30;99.90;;;;;;5077568;28;20555;-63
2022/02/04 11:59:59;;;;;;;4.17;2.80;;;7.40;99.90;;;;;;5077551;28;20875;-64
2022/02/04 12:02:36;;;;;;;3.57;2.70;;;7.40;99.90;;;;;;5057682;28;20746;-64
2022/02/04 12:05:38;;;;;;;2.53;2.30;;;7.40;99.90;;;;;;5063746;28;20460;-63
2022/02/04 12:08:20;;;;;;;2.70;2.50;;;7.40;99.90;;;;;;5077906;28;20461;-63
2022/02/04 12:10:51;;;;;;;2.13;1.93;;;7.40;99.90;;;;;;5076277;28;20454;-63
2022/02/04 12:13:20;;;;;;;2.93;1.97;;;7.40;99.90;;;;;;5076976;28;20493;-64
2022/02/04 12:15:49;;;;;;;3.03;2.13;;;7.40;99.90;;;;;;5077519;28;20960;-64
2022/02/04 12:18:19;;;;;;;5.40;3.97;;;7.50;99.90;;;;;;5077355;28;20465;-64
2022/02/04 12:21:03;;;;;;;8.93;6.27;;;7.40;99.90;;;;;;5076878;28;20457;-64
2022/02/04 12:23:50;;;;;;;10.77;7.27;;;7.40;99.90;;;;;;5057327;28;20462;-64
2022/02/04 12:26:29;;;;;;;5.20;4.20;;;7.40;99.90;;;;;;5064900;28;20776;-64
2022/02/04 12:28:58;;;;;;;7.30;5.70;;;7.40;99.90;;;;;;5075907;28;20469;-63
2022/02/04 12:31:30;;;;;;;5.80;5.10;;;7.40;99.90;;;;;;5076377;28;20473;-63
2022/02/04 12:34:05;;;;;;;3.60;3.13;;;7.40;99.90;;;;;;5075515;28;20497;-62
2022/02/04 12:36:35;;;;;;;5.27;4.20;;;7.40;99.90;;;;;;5075038;28;20556;-63
2022/02/04 12:39:04;;;;;;;3.40;3.10;;;7.40;99.90;;;;;;5076576;28;20956;-63
2022/02/04 12:41:34;;;;;;;2.87;2.63;;;7.40;99.90;;;;;;5076813;28;20887;-63
2022/02/04 12:44:03;;;;;;;3.20;2.90;;;7.30;99.90;;;;;;5076845;28;20907;-63
2022/02/04 12:46:31;;;;;;;3.50;2.90;;;7.30;99.90;;;;;;5076393;28;20882;-62
2022/02/04 12:49:05;;;;;;;2.93;2.60;;;7.30;99.90;;;;;;5075274;28;20493;-62
2022/02/04 12:51:46;;;;;;;3.10;2.60;;;7.20;99.90;;;;;;5075327;28;20784;-61
2022/02/04 12:54:24;;;;;;;3.10;2.33;;;7.10;99.90;;;;;;5076956;28;20877;-62
2022/02/04 12:57:27;;;;;;;3.23;2.57;;;7.10;99.90;;;;;;5076063;28;20460;-63
2022/02/04 12:59:57;;;;;;;4.20;3.07;;;7.10;99.90;;;;;;5056821;28;20458;-62
2022/02/04 13:08:04;;;;;;;3.33;3.03;;;7.10;1.00;;;;;;5043303;28;20527;-63
2022/02/04 13:10:34;;;;;;;3.60;2.93;;;7.10;1.00;;;;;;5076572;28;20642;-63
2022/02/04 13:13:03;;;;;;;3.50;2.80;;;7.10;1.00;;;;;;5076078;28;20493;-63
2022/02/04 13:15:38;;;;;;;2.70;2.27;;;7.20;99.90;;;;;;5076837;28;20486;-63
2022/02/04 13:18:09;;;;;;;2.80;2.47;;;7.30;1.00;;;;;;5076483;28;20457;-63
2022/02/04 13:20:48;;;;;;;3.23;2.90;;;7.20;19.90;;;;;;5076908;28;20465;-63
2022/02/04 13:23:19;;;;;;;3.33;2.70;;;7.20;10.30;;;;;;5076141;28;20439;-63
2022/02/04 13:25:49;;;;;;;4.07;2.70;;;7.20;99.90;;;;;;5076791;28;20440;-63
2022/02/04 13:28:18;;;;;;;4.90;2.67;;;7.20;99.90;;;;;;5076415;28;20519;-63
2022/02/04 13:30:59;;;;;;;3.30;2.43;;;7.20;87.00;;;;;;5076780;28;20461;-60
2022/02/04 13:33:28;;;;;;;3.07;2.20;;;7.20;1.00;;;;;;5075971;28;20510;-63
2022/02/04 13:36:11;;;;;;;3.10;2.63;;;7.20;99.90;;;;;;5083552;28;20486;-63
2022/02/04 13:38:56;;;;;;;3.10;2.23;;;7.30;1.00;;;;;;5097687;28;20470;-63
2022/02/04 13:41:35;;;;;;;3.37;2.50;;;7.30;1.00;;;;;;5076497;28;20821;-63
2022/02/04 13:44:29;;;;;;;2.70;2.50;;;7.30;99.90;;;;;;5080114;28;20519;-63
2022/02/04 13:47:15;;;;;;;4.97;3.93;;;7.40;99.90;;;;;;5080212;28;20804;-63
2022/02/04 13:55:42;;;;;;;3.93;3.50;;;7.50;1.00;;;;;;5063084;28;20445;-63
2022/02/04 13:58:22;;;;;;;5.43;3.40;;;7.50;1.00;;;;;;5079510;28;20499;-63
2022/02/04 14:00:58;;;;;;;3.20;2.90;;;7.50;1.00;;;;;;5079642;28;20457;-63
2022/02/04 14:03:27;;;;;;;5.47;3.33;;;7.60;1.00;;;;;;5079806;28;20484;-63
2022/02/04 14:06:01;;;;;;;4.40;3.83;;;7.70;1.00;;;;;;5079536;28;20461;-62
2022/02/04 14:08:33;;;;;;;4.87;3.60;;;7.70;1.00;;;;;;5079671;28;20465;-63
2022/02/04 14:11:08;;;;;;;3.33;3.00;;;7.80;1.00;;;;;;5079079;28;20461;-63
2022/02/04 14:13:35;;;;;;;3.53;3.00;;;7.70;1.00;;;;;;5079311;28;20546;-62
2022/02/04 14:16:06;;;;;;;3.20;2.83;;;7.70;1.00;;;;;;5079465;28;20465;-63
2022/02/04 14:18:36;;;;;;;3.40;3.00;;;7.70;1.00;;;;;;5079824;28;20519;-62
2022/02/04 14:21:04;;;;;;;3.73;2.90;;;7.80;1.00;;;;;;5078806;28;20457;-63
2022/02/04 14:23:31;;;;;;;4.27;3.07;;;7.80;1.00;;;;;;5079557;28;20523;-63
2022/02/04 14:26:08;;;;;;;3.93;3.20;;;7.80;1.00;;;;;;5078979;28;20461;-63
2022/02/04 14:28:41;;;;;;;4.30;3.20;;;7.80;1.00;;;;;;5079610;28;20479;-62
2022/02/04 14:31:20;;;;;;;4.10;3.70;;;7.80;1.00;;;;;;5078747;28;20853;-63
2022/02/04 14:36:56;;;;;;;3.83;3.10;;;7.70;1.00;;;;;;5017443;28;20463;-63
2022/02/04 14:53:22;;;;;;;4.00;2.43;;;7.50;99.90;;;;;;5078132;28;20455;-63
2022/02/04 14:59:27;;;;;;;3.40;2.30;;;7.50;99.90;;;;;;5079060;28;20445;-63
2022/02/04 15:01:55;;;;;;;6.00;2.43;;;7.50;99.90;;;;;;5078839;28;20902;-63
2022/02/04 15:04:36;;;;;;;3.63;2.60;;;7.50;99.90;;;;;;5078656;28;20519;-60
2022/02/04 15:07:05;;;;;;;4.63;2.67;;;7.40;99.90;;;;;;5077039;28;20457;-62
2022/02/04 15:09:33;;;;;;;4.87;2.30;;;7.40;1.00;;;;;;5078090;28;20465;-61
2022/02/04 15:12:02;;;;;;;4.07;2.40;;;7.20;1.00;;;;;;5078465;28;20443;-61
2022/02/04 15:14:32;;;;;;;5.90;2.87;;;7.20;28.10;;;;;;5078056;28;20965;-61
2022/02/04 15:17:00;;;;;;;3.37;2.57;;;7.10;99.90;;;;;;5078551;28;20465;-62
2022/02/04 15:19:32;;;;;;;3.50;2.53;;;7.00;1.00;;;;;;5077923;28;20987;-62
2022/02/04 15:22:01;;;;;;;4.30;3.17;;;7.00;99.90;;;;;;5078663;28;20546;-63
2022/02/04 15:24:30;;;;;;;8.20;3.67;;;6.90;1.00;;;;;;5077992;28;20461;-62
2022/02/04 15:26:58;;;;;;;5.47;2.40;;;6.90;23.20;;;;;;5077951;28;20940;-62
2022/02/04 15:29:25;;;;;;;3.00;2.40;;;6.70;99.90;;;;;;5078295;28;20474;-62
2022/02/04 15:32:00;;;;;;;4.30;2.87;;;6.70;1.00;;;;;;5077928;28;20469;-62
2022/02/04 15:34:27;;;;;;;7.03;3.27;;;6.60;70.90;;;;;;5077674;28;20805;-62
2022/02/04 15:36:57;;;;;;;5.37;2.77;;;6.60;99.90;;;;;;5093647;28;20427;-61
2022/02/04 15:39:30;;;;;;;6.37;3.10;;;6.60;99.90;;;;;;5086142;28;20432;-61
2022/02/04 15:42:02;;;;;;;8.10;3.53;;;6.60;99.90;;;;;;5077907;28;20506;-62
2022/02/04 15:44:37;;;;;;;7.93;3.20;;;6.60;59.60;;;;;;5077937;28;20481;-62
2022/02/04 15:50:05;;;;;;;4.57;2.63;;;6.60;99.90;;;;;;5062473;28;20510;-62
2022/02/04 15:55:49;;;;;;;4.70;3.30;;;6.60;99.90;;;;;;5072696;28;20436;-62
2022/02/04 15:58:25;;;;;;;4.10;2.93;;;6.50;99.90;;;;;;5077848;28;20906;-61
2022/02/04 16:01:19;;;;;;;5.53;3.17;;;6.50;99.90;;;;;;5077272;28;20496;-62
2022/02/04 16:04:15;;;;;;;5.37;3.10;;;6.40;99.90;;;;;;5077522;28;20474;-62
2022/02/04 16:06:44;;;;;;;8.30;5.10;;;6.50;99.90;;;;;;5077674;28;20961;-62
2022/02/04 16:09:11;;;;;;;8.27;3.33;;;6.50;99.90;;;;;;5077725;28;20530;-61
2022/02/04 16:11:52;;;;;;;4.60;3.57;;;6.50;99.90;;;;;;5077216;28;20540;-62
2022/02/04 16:14:23;;;;;;;4.40;2.80;;;6.50;99.90;;;;;;5074305;28;20834;-61
2022/02/04 16:16:54;;;;;;;5.93;3.00;;;6.50;99.90;;;;;;5077401;28;20465;-61
2022/02/04 16:19:37;;;;;;;5.07;3.03;;;6.50;99.90;;;;;;5077567;28;20482;-61
2022/02/04 16:30:21;;;;;;;4.27;3.37;;;6.50;99.90;;;;;;5077177;28;20892;-62
2022/02/04 16:32:48;;;;;;;6.07;3.30;;;6.60;99.90;;;;;;5076167;28;20456;-61
2022/02/04 16:35:16;;;;;;;6.90;3.63;;;6.70;99.90;;;;;;5075847;28;20461;-61
2022/02/04 16:37:51;;;;;;;8.07;3.83;;;6.80;99.90;;;;;;5076910;28;20882;-62
2022/02/04 16:40:20;;;;;;;3.87;3.53;;;6.80;99.90;;;;;;5076412;28;20491;-61
2022/02/04 16:42:48;;;;;;;4.10;3.57;;;6.80;99.90;;;;;;5077151;28;20574;-61
2022/02/04 16:45:15;;;;;;;4.87;3.50;;;6.90;99.90;;;;;;5076554;28;20758;-61
2022/02/04 16:47:45;;;;;;;4.53;3.50;;;6.90;99.90;;;;;;5077277;28;20906;-61
2022/02/04 16:50:12;;;;;;;6.70;3.50;;;6.90;99.90;;;;;;5077174;28;20439;-62
2022/02/04 16:52:46;;;;;;;4.33;3.47;;;6.90;99.90;;;;;;5076867;28;20550;-62
2022/02/04 16:55:13;;;;;;;3.50;3.20;;;6.90;99.90;;;;;;5076449;28;20809;-62
2022/02/04 16:57:42;;;;;;;6.77;3.40;;;6.80;99.90;;;;;;5074530;28;20828;-62
2022/02/04 17:00:21;;;;;;;4.60;2.87;;;6.90;99.90;;;;;;5075407;28;20497;-62
2022/02/04 17:02:50;;;;;;;3.53;3.07;;;6.80;99.90;;;;;;5075197;28;20485;-62
2022/02/04 17:05:19;;;;;;;3.57;3.27;;;6.80;99.90;;;;;;5076779;28;20469;-61
2022/02/04 17:07:54;;;;;;;3.30;3.00;;;6.70;99.90;;;;;;5077456;28;20468;-61
2022/02/04 17:10:28;;;;;;;3.57;3.27;;;6.30;99.90;;;;;;5077015;28;20467;-61
2022/02/04 17:13:00;;;;;;;4.20;3.80;;;6.10;99.90;;;;;;5075623;28;20477;-60
2022/02/04 17:15:27;;;;;;;4.60;4.20;;;5.80;99.90;;;;;;5079724;28;20461;-61
2022/02/04 17:17:54;;;;;;;3.80;3.30;;;5.60;99.90;;;;;;5079534;28;20469;-61
2022/02/04 17:20:24;;;;;;;3.50;3.20;;;5.40;99.90;;;;;;5079302;28;20485;-61
2022/02/04 17:22:54;;;;;;;4.30;3.33;;;5.10;99.90;;;;;;5079852;28;20466;-61
2022/02/04 17:25:26;;;;;;;3.33;3.03;;;4.90;99.90;;;;;;5080334;28;20894;-61
2022/02/04 17:27:57;;;;;;;3.03;2.73;;;4.60;99.90;;;;;;5080442;28;20841;-61
2022/02/04 17:30:26;;;;;;;4.20;3.07;;;4.40;99.90;;;;;;5078890;28;20582;-61
2022/02/04 17:32:56;;;;;;;3.73;2.90;;;4.30;99.90;;;;;;5068842;28;20489;-61
2022/02/04 17:35:25;;;;;;;2.97;2.60;;;4.20;99.90;;;;;;5080485;28;20457;-61
2022/02/04 17:37:57;;;;;;;3.13;2.93;;;4.10;99.90;;;;;;5084217;28;20562;-61
2022/02/04 17:40:25;;;;;;;3.70;3.40;;;4.00;99.90;;;;;;5080474;28;20436;-61
2022/02/04 17:42:55;;;;;;;5.20;4.80;;;4.10;99.90;;;;;;5077196;28;20921;-60
2022/02/04 17:45:22;;;;;;;6.60;5.07;;;4.00;99.90;;;;;;5071770;28;20563;-61
2022/02/04 17:47:55;;;;;;;6.97;6.27;;;4.10;99.90;;;;;;5079791;28;20473;-60